sensor_id;sensor_type;location;lat;lon;timestamp;temperature;humidity
2407;DHT22;37709;53.480;9.688;2023-08-07T07:11:29;16.30;99.90
2407;DHT22;37709;53.480;9.688;2023-08-07T07:13:57;21.00;99.90
2407;DHT22;37709;53.480;9.688;2023-08-07T07:16:24;20.60;99.90
2407;DHT22;37709;53.480;9.688;2023-08-07T07:18:56;20.70;99.90
2407;DHT22;37709;53.480;9.688;2023-08-07T07:21:25;20.80;99.90
2407;DHT22;37709;53.480;9.688;2023-08-07T07:41:15;20.20;99.90
2407;DHT22;37709;53.480;9.688;2023-08-07T07:43:43;23.90;99.90
2407;DHT22;37709;53.480;9.688;2023-08-07T07:46:10;24.10;99.90
2407;DHT22;37709;53.480;9.688;2023-08-07T07:48:38;23.40;99.90
2407;DHT22;37709;53.480;9.688;2023-08-07T07:51:06;23.30;99.90
2407;DHT22;37709;53.480;9.688;2023-08-07T07:53:33;24.40;99.90
2407;DHT22;37709;53.480;9.688;2023-08-07T07:56:01;22.80;99.90
2407;DHT22;37709;53.480;9.688;2023-08-07T08:18:12;21.20;99.90
2407;DHT22;37709;53.480;9.688;2023-08-07T08:20:40;22.10;99.90
2407;DHT22;37709;53.480;9.688;2023-08-07T08:23:07;24.90;99.90
2407;DHT22;37709;53.480;9.688;2023-08-07T08:25:35;26.70;99.90
2407;DHT22;37709;53.480;9.688;2023-08-07T08:28:03;27.50;99.90
2407;DHT22;37709;53.480;9.688;2023-08-07T08:30:30;28.00;99.90
2407;DHT22;37709;53.480;9.688;2023-08-07T08:32:58;28.20;99.60
2407;DHT22;37709;53.480;9.688;2023-08-07T08:35:25;28.50;98.10
2407;DHT22;37709;53.480;9.688;2023-08-07T08:37:53;29.30;97.20
2407;DHT22;37709;53.480;9.688;2023-08-07T08:40:20;29.30;93.20
2407;DHT22;37709;53.480;9.688;2023-08-07T08:42:49;30.50;92.20
2407;DHT22;37709;53.480;9.688;2023-08-07T08:45:19;31.10;90.40
2407;DHT22;37709;53.480;9.688;2023-08-07T08:47:50;31.40;84.40
2407;DHT22;37709;53.480;9.688;2023-08-07T08:50:19;30.70;82.10
2407;DHT22;37709;53.480;9.688;2023-08-07T08:52:46;30.80;82.00
2407;DHT22;37709;53.480;9.688;2023-08-07T08:55:14;30.10;80.50
2407;DHT22;37709;53.480;9.688;2023-08-07T08:57:41;29.50;81.30
2407;DHT22;37709;53.480;9.688;2023-08-07T09:00:09;29.30;81.10
2407;DHT22;37709;53.480;9.688;2023-08-07T09:02:50;27.80;81.90
2407;DHT22;37709;53.480;9.688;2023-08-07T09:05:19;26.20;84.70
2407;DHT22;37709;53.480;9.688;2023-08-07T09:07:49;26.60;85.30
2407;DHT22;37709;53.480;9.688;2023-08-07T09:10:18;27.40;84.60
2407;DHT22;37709;53.480;9.688;2023-08-07T09:12:54;28.00;82.70
2407;DHT22;37709;53.480;9.688;2023-08-07T09:15:25;28.70;81.30
2407;DHT22;37709;53.480;9.688;2023-08-07T09:17:54;26.50;81.70
2407;DHT22;37709;53.480;9.688;2023-08-07T09:20:22;24.80;84.40
2407;DHT22;37709;53.480;9.688;2023-08-07T09:22:50;24.60;87.90
2407;DHT22;37709;53.480;9.688;2023-08-07T09:25:28;25.00;87.60
2407;DHT22;37709;53.480;9.688;2023-08-07T09:27:56;24.90;89.10
2407;DHT22;37709;53.480;9.688;2023-08-07T09:30:28;25.40;88.70
2407;DHT22;37709;53.480;9.688;2023-08-07T09:33:00;24.80;88.10
2407;DHT22;37709;53.480;9.688;2023-08-07T09:35:29;23.50;90.00
2407;DHT22;37709;53.480;9.688;2023-08-07T09:37:57;22.00;91.70
2407;DHT22;37709;53.480;9.688;2023-08-07T09:40:25;21.70;93.20
2407;DHT22;37709;53.480;9.688;2023-08-07T09:42:54;24.30;91.40
2407;DHT22;37709;53.480;9.688;2023-08-07T09:50:26;19.50;98.20
2407;DHT22;37709;53.480;9.688;2023-08-07T09:52:54;18.70;99.90
2407;DHT22;37709;53.480;9.688;2023-08-07T09:55:25;18.20;99.90
2407;DHT22;37709;53.480;9.688;2023-08-07T09:57:54;17.50;99.90
2407;DHT22;37709;53.480;9.688;2023-08-07T10:00:21;17.00;99.90
2407;DHT22;37709;53.480;9.688;2023-08-07T10:02:50;17.00;99.90
2407;DHT22;37709;53.480;9.688;2023-08-07T10:05:19;17.90;99.90
2407;DHT22;37709;53.480;9.688;2023-08-07T10:07:48;20.70;99.90
2407;DHT22;37709;53.480;9.688;2023-08-07T10:10:16;21.90;99.90
2407;DHT22;37709;53.480;9.688;2023-08-07T10:12:45;23.40;99.90
2407;DHT22;37709;53.480;9.688;2023-08-07T10:15:15;28.10;98.30
2407;DHT22;37709;53.480;9.688;2023-08-07T10:17:42;30.00;93.00
2407;DHT22;37709;53.480;9.688;2023-08-07T10:20:12;29.90;91.40
2407;DHT22;37709;53.480;9.688;2023-08-07T10:22:39;28.80;91.50
2407;DHT22;37709;53.480;9.688;2023-08-07T10:27:38;30.90;90.40
2407;DHT22;37709;53.480;9.688;2023-08-07T10:30:09;34.00;74.00
2407;DHT22;37709;53.480;9.688;2023-08-07T10:32:40;32.10;74.30
2407;DHT22;37709;53.480;9.688;2023-08-07T10:35:08;29.80;75.60
2407;DHT22;37709;53.480;9.688;2023-08-07T10:37:40;28.70;76.10
2407;DHT22;37709;53.480;9.688;2023-08-07T10:40:26;28.00;79.00
2407;DHT22;37709;53.480;9.688;2023-08-07T10:45:24;28.40;77.40
2407;DHT22;37709;53.480;9.688;2023-08-07T10:50:33;34.10;71.00
2407;DHT22;37709;53.480;9.688;2023-08-07T10:53:04;34.90;69.10
2407;DHT22;37709;53.480;9.688;2023-08-07T10:58:33;32.70;68.50
2407;DHT22;37709;53.480;9.688;2023-08-07T11:03:57;25.70;80.10
2407;DHT22;37709;53.480;9.688;2023-08-07T11:06:26;25.00;80.30
2407;DHT22;37709;53.480;9.688;2023-08-07T11:08:54;23.50;81.70
2407;DHT22;37709;53.480;9.688;2023-08-07T11:11:21;22.20;85.00
2407;DHT22;37709;53.480;9.688;2023-08-07T11:13:49;23.50;86.10
2407;DHT22;37709;53.480;9.688;2023-08-07T11:16:17;25.10;83.90
2407;DHT22;37709;53.480;9.688;2023-08-07T11:23:40;26.00;83.10
2407;DHT22;37709;53.480;9.688;2023-08-07T11:26:09;29.10;75.50
2407;DHT22;37709;53.480;9.688;2023-08-07T11:28:37;25.80;77.10
2407;DHT22;37709;53.480;9.688;2023-08-07T11:31:04;22.80;89.20
2407;DHT22;37709;53.480;9.688;2023-08-07T11:33:32;20.30;96.40
2407;DHT22;37709;53.480;9.688;2023-08-07T11:35:59;19.70;99.90
2407;DHT22;37709;53.480;9.688;2023-08-07T11:41:02;21.80;98.90
2407;DHT22;37709;53.480;9.688;2023-08-07T11:43:30;24.00;96.70
2407;DHT22;37709;53.480;9.688;2023-08-07T11:46:00;25.70;94.30
2407;DHT22;37709;53.480;9.688;2023-08-07T11:48:29;25.70;92.60
2407;DHT22;37709;53.480;9.688;2023-08-07T11:50:57;24.30;96.40
2407;DHT22;37709;53.480;9.688;2023-08-07T11:53:31;22.50;99.10
2407;DHT22;37709;53.480;9.688;2023-08-07T11:56:09;20.90;99.90
2407;DHT22;37709;53.480;9.688;2023-08-07T11:58:41;20.10;99.90
2407;DHT22;37709;53.480;9.688;2023-08-07T12:01:10;21.00;99.90
2407;DHT22;37709;53.480;9.688;2023-08-07T12:03:43;22.60;99.90
2407;DHT22;37709;53.480;9.688;2023-08-07T12:06:10;22.90;97.90
2407;DHT22;37709;53.480;9.688;2023-08-07T12:08:39;22.40;96.50
2407;DHT22;37709;53.480;9.688;2023-08-07T12:11:11;21.50;96.50
2407;DHT22;37709;53.480;9.688;2023-08-07T12:13:42;20.50;97.40
2407;DHT22;37709;53.480;9.688;2023-08-07T12:16:10;19.70;99.90
2407;DHT22;37709;53.480;9.688;2023-08-07T12:18:52;18.70;99.90
2407;DHT22;37709;53.480;9.688;2023-08-07T12:21:21;18.90;99.90
2407;DHT22;37709;53.480;9.688;2023-08-07T12:23:56;20.20;99.90
2407;DHT22;37709;53.480;9.688;2023-08-07T12:26:24;21.20;99.90
2407;DHT22;37709;53.480;9.688;2023-08-07T12:28:52;22.50;98.20
2407;DHT22;37709;53.480;9.688;2023-08-07T12:31:20;24.00;96.50
2407;DHT22;37709;53.480;9.688;2023-08-07T12:33:47;26.80;92.80
2407;DHT22;37709;53.480;9.688;2023-08-07T12:36:15;27.00;90.10
2407;DHT22;37709;53.480;9.688;2023-08-07T12:38:46;26.50;90.00
2407;DHT22;37709;53.480;9.688;2023-08-07T12:41:14;25.70;89.50
2407;DHT22;37709;53.480;9.688;2023-08-07T12:43:45;26.10;86.50
2407;DHT22;37709;53.480;9.688;2023-08-07T12:56:06;26.40;86.30
2407;DHT22;37709;53.480;9.688;2023-08-07T12:58:33;19.00;98.00
2407;DHT22;37709;53.480;9.688;2023-08-07T13:01:01;18.10;99.90
2407;DHT22;37709;53.480;9.688;2023-08-07T13:03:28;18.00;99.90
2407;DHT22;37709;53.480;9.688;2023-08-07T13:05:57;19.60;99.90
2407;DHT22;37709;53.480;9.688;2023-08-07T13:08:24;21.90;99.20
2407;DHT22;37709;53.480;9.688;2023-08-07T13:10:51;21.90;98.20
2407;DHT22;37709;53.480;9.688;2023-08-07T13:13:21;21.60;97.90
2407;DHT22;37709;53.480;9.688;2023-08-07T13:15:48;21.40;98.30
2407;DHT22;37709;53.480;9.688;2023-08-07T13:18:16;21.00;98.70
2407;DHT22;37709;53.480;9.688;2023-08-07T13:20:44;21.20;99.30
2407;DHT22;37709;53.480;9.688;2023-08-07T13:23:13;21.50;99.20
2407;DHT22;37709;53.480;9.688;2023-08-07T13:25:41;21.80;98.00
2407;DHT22;37709;53.480;9.688;2023-08-07T13:28:09;23.80;96.90
2407;DHT22;37709;53.480;9.688;2023-08-07T13:30:36;26.00;93.40
2407;DHT22;37709;53.480;9.688;2023-08-07T13:33:04;26.60;91.60
2407;DHT22;37709;53.480;9.688;2023-08-07T13:35:31;24.80;92.60
2407;DHT22;37709;53.480;9.688;2023-08-07T13:38:02;23.90;94.00
2407;DHT22;37709;53.480;9.688;2023-08-07T13:40:32;23.00;95.10
2407;DHT22;37709;53.480;9.688;2023-08-07T13:43:00;21.30;97.50
2407;DHT22;37709;53.480;9.688;2023-08-07T13:45:31;20.00;99.80
2407;DHT22;37709;53.480;9.688;2023-08-07T13:47:58;19.50;99.90
2407;DHT22;37709;53.480;9.688;2023-08-07T13:50:26;20.80;99.80
2407;DHT22;37709;53.480;9.688;2023-08-07T13:52:55;21.80;97.50
2407;DHT22;37709;53.480;9.688;2023-08-07T13:55:39;22.00;96.70
2407;DHT22;37709;53.480;9.688;2023-08-07T13:58:07;21.80;96.40
2407;DHT22;37709;53.480;9.688;2023-08-07T14:00:37;21.50;95.90
2407;DHT22;37709;53.480;9.688;2023-08-07T14:03:06;22.40;95.40
2407;DHT22;37709;53.480;9.688;2023-08-07T14:05:35;24.10;93.60
2407;DHT22;37709;53.480;9.688;2023-08-07T14:08:02;26.60;90.60
2407;DHT22;37709;53.480;9.688;2023-08-07T14:10:32;24.70;90.50
2407;DHT22;37709;53.480;9.688;2023-08-07T14:13:00;22.90;90.80
2407;DHT22;37709;53.480;9.688;2023-08-07T14:15:28;22.10;91.50
2407;DHT22;37709;53.480;9.688;2023-08-07T14:17:56;22.40;91.70
2407;DHT22;37709;53.480;9.688;2023-08-07T14:20:25;22.20;91.20
2407;DHT22;37709;53.480;9.688;2023-08-07T14:22:53;22.10;91.30
2407;DHT22;37709;53.480;9.688;2023-08-07T14:25:29;21.50;92.10
2407;DHT22;37709;53.480;9.688;2023-08-07T14:27:57;21.60;92.60
2407;DHT22;37709;53.480;9.688;2023-08-07T14:30:24;23.00;91.50
2407;DHT22;37709;53.480;9.688;2023-08-07T14:32:51;23.40;91.60
2407;DHT22;37709;53.480;9.688;2023-08-07T14:35:19;23.70;91.30
2407;DHT22;37709;53.480;9.688;2023-08-07T14:37:46;23.80;90.90
2407;DHT22;37709;53.480;9.688;2023-08-07T14:40:15;24.20;91.30
2407;DHT22;37709;53.480;9.688;2023-08-07T14:42:42;24.60;90.30
2407;DHT22;37709;53.480;9.688;2023-08-07T14:45:10;25.50;89.90
2407;DHT22;37709;53.480;9.688;2023-08-07T14:47:37;24.80;89.10
2407;DHT22;37709;53.480;9.688;2023-08-07T14:50:05;23.80;90.40
2407;DHT22;37709;53.480;9.688;2023-08-07T14:52:33;23.40;90.60
2407;DHT22;37709;53.480;9.688;2023-08-07T14:55:00;25.00;89.60
2407;DHT22;37709;53.480;9.688;2023-08-07T14:57:28;25.10;89.30
2407;DHT22;37709;53.480;9.688;2023-08-07T14:59:55;25.90;88.40
2407;DHT22;37709;53.480;9.688;2023-08-07T15:02:23;26.00;87.50
2407;DHT22;37709;53.480;9.688;2023-08-07T15:04:50;25.00;87.60
2407;DHT22;37709;53.480;9.688;2023-08-07T15:07:18;23.60;88.80
2407;DHT22;37709;53.480;9.688;2023-08-07T15:09:46;23.00;90.10
2407;DHT22;37709;53.480;9.688;2023-08-07T15:12:17;22.80;90.60
2407;DHT22;37709;53.480;9.688;2023-08-07T15:14:45;24.50;89.00
2407;DHT22;37709;53.480;9.688;2023-08-07T15:17:12;23.90;88.70
2407;DHT22;37709;53.480;9.688;2023-08-07T15:19:40;23.80;90.10
2407;DHT22;37709;53.480;9.688;2023-08-07T15:22:07;24.40;90.40
2407;DHT22;37709;53.480;9.688;2023-08-07T15:24:35;25.10;87.80
2407;DHT22;37709;53.480;9.688;2023-08-07T15:27:03;25.70;86.70
2407;DHT22;37709;53.480;9.688;2023-08-07T15:29:31;25.00;85.70
2407;DHT22;37709;53.480;9.688;2023-08-07T15:31:58;23.10;89.00
2407;DHT22;37709;53.480;9.688;2023-08-07T15:34:26;21.80;90.80
2407;DHT22;37709;53.480;9.688;2023-08-07T15:36:53;20.80;92.00
2407;DHT22;37709;53.480;9.688;2023-08-07T15:39:20;20.00;92.80
2407;DHT22;37709;53.480;9.688;2023-08-07T15:41:48;19.50;93.30
2407;DHT22;37709;53.480;9.688;2023-08-07T15:44:15;19.70;93.20
2407;DHT22;37709;53.480;9.688;2023-08-07T15:46:42;20.40;92.40
2407;DHT22;37709;53.480;9.688;2023-08-07T15:49:09;21.70;90.80
2407;DHT22;37709;53.480;9.688;2023-08-07T15:51:37;22.00;90.60
2407;DHT22;37709;53.480;9.688;2023-08-07T15:54:04;22.70;90.00
2407;DHT22;37709;53.480;9.688;2023-08-07T15:56:31;22.90;89.30
2407;DHT22;37709;53.480;9.688;2023-08-07T15:58:59;22.00;90.30
2407;DHT22;37709;53.480;9.688;2023-08-07T16:01:27;21.40;91.40
2407;DHT22;37709;53.480;9.688;2023-08-07T16:03:54;21.10;91.80
2407;DHT22;37709;53.480;9.688;2023-08-07T16:06:22;21.20;92.10
2407;DHT22;37709;53.480;9.688;2023-08-07T16:08:50;21.10;92.60
2407;DHT22;37709;53.480;9.688;2023-08-07T16:11:18;20.70;93.30
2407;DHT22;37709;53.480;9.688;2023-08-07T16:13:45;20.40;93.50
2407;DHT22;37709;53.480;9.688;2023-08-07T16:16:32;21.30;93.50
2407;DHT22;37709;53.480;9.688;2023-08-07T16:19:00;21.80;93.10
2407;DHT22;37709;53.480;9.688;2023-08-07T16:21:27;21.40;93.80
2407;DHT22;37709;53.480;9.688;2023-08-07T16:24:13;20.90;94.00
2407;DHT22;37709;53.480;9.688;2023-08-07T16:26:40;20.30;94.40
2407;DHT22;37709;53.480;9.688;2023-08-07T16:29:30;20.00;94.80
2407;DHT22;37709;53.480;9.688;2023-08-07T16:32:16;19.50;94.60
2407;DHT22;37709;53.480;9.688;2023-08-07T16:34:43;18.80;94.00
2407;DHT22;37709;53.480;9.688;2023-08-07T16:37:12;18.40;94.90
2407;DHT22;37709;53.480;9.688;2023-08-07T16:39:39;18.60;95.00
2407;DHT22;37709;53.480;9.688;2023-08-07T16:42:07;18.70;95.10
2407;DHT22;37709;53.480;9.688;2023-08-07T16:44:34;19.10;94.70
2407;DHT22;37709;53.480;9.688;2023-08-07T16:47:02;19.30;94.30
2407;DHT22;37709;53.480;9.688;2023-08-07T16:49:29;19.00;94.50
2407;DHT22;37709;53.480;9.688;2023-08-07T16:51:56;18.90;94.50
2407;DHT22;37709;53.480;9.688;2023-08-07T16:54:25;18.50;94.70
2407;DHT22;37709;53.480;9.688;2023-08-07T16:56:54;18.10;95.50
2407;DHT22;37709;53.480;9.688;2023-08-07T16:59:21;17.80;96.20
2407;DHT22;37709;53.480;9.688;2023-08-07T17:01:49;17.30;98.90
2407;DHT22;37709;53.480;9.688;2023-08-07T17:04:16;16.50;99.90
2407;DHT22;37709;53.480;9.688;2023-08-07T17:06:44;16.00;99.90
2407;DHT22;37709;53.480;9.688;2023-08-07T17:09:11;16.00;99.90
2407;DHT22;37709;53.480;9.688;2023-08-07T17:11:38;15.90;99.90
2407;DHT22;37709;53.480;9.688;2023-08-07T17:14:06;15.70;99.90
2407;DHT22;37709;53.480;9.688;2023-08-07T17:16:34;15.50;99.90
2407;DHT22;37709;53.480;9.688;2023-08-07T17:19:01;15.40;99.90
2407;DHT22;37709;53.480;9.688;2023-08-07T17:21:30;15.20;99.90
2407;DHT22;37709;53.480;9.688;2023-08-07T17:23:58;15.10;99.90
2407;DHT22;37709;53.480;9.688;2023-08-07T17:26:25;15.10;99.90
2407;DHT22;37709;53.480;9.688;2023-08-07T17:28:57;15.00;99.90
2407;DHT22;37709;53.480;9.688;2023-08-07T17:31:28;15.00;99.90
2407;DHT22;37709;53.480;9.688;2023-08-07T17:33:56;15.20;99.90
2407;DHT22;37709;53.480;9.688;2023-08-07T17:36:23;14.90;99.90
2407;DHT22;37709;53.480;9.688;2023-08-07T17:38:51;14.90;99.90
2407;DHT22;37709;53.480;9.688;2023-08-07T17:41:18;14.90;99.90
2407;DHT22;37709;53.480;9.688;2023-08-07T17:43:47;14.70;99.90
2407;DHT22;37709;53.480;9.688;2023-08-07T17:46:16;14.40;99.90
2407;DHT22;37709;53.480;9.688;2023-08-07T17:48:44;14.40;99.90
2407;DHT22;37709;53.480;9.688;2023-08-07T17:51:12;14.40;99.90
2407;DHT22;37709;53.480;9.688;2023-08-07T17:53:40;14.30;99.90
2407;DHT22;37709;53.480;9.688;2023-08-07T17:56:08;14.10;99.90
2407;DHT22;37709;53.480;9.688;2023-08-07T17:58:35;13.90;99.90
2407;DHT22;37709;53.480;9.688;2023-08-07T18:01:03;13.80;99.90
2407;DHT22;37709;53.480;9.688;2023-08-07T18:03:31;13.70;99.90
2407;DHT22;37709;53.480;9.688;2023-08-07T18:05:58;13.50;99.90
2407;DHT22;37709;53.480;9.688;2023-08-07T18:08:26;13.40;99.90
2407;DHT22;37709;53.480;9.688;2023-08-07T18:10:53;13.40;99.90
2407;DHT22;37709;53.480;9.688;2023-08-07T18:13:21;13.40;99.90
2407;DHT22;37709;53.480;9.688;2023-08-07T18:15:49;13.40;99.90
2407;DHT22;37709;53.480;9.688;2023-08-07T18:18:16;13.30;99.90
2407;DHT22;37709;53.480;9.688;2023-08-07T18:20:43;13.20;99.90
2407;DHT22;37709;53.480;9.688;2023-08-07T18:23:11;13.20;99.90
2407;DHT22;37709;53.480;9.688;2023-08-07T18:25:38;13.20;99.90
2407;DHT22;37709;53.480;9.688;2023-08-07T18:28:05;13.30;99.90
2407;DHT22;37709;53.480;9.688;2023-08-07T18:30:33;13.40;99.90
2407;DHT22;37709;53.480;9.688;2023-08-07T18:33:00;13.20;99.90
2407;DHT22;37709;53.480;9.688;2023-08-07T18:35:28;13.10;99.90
2407;DHT22;37709;53.480;9.688;2023-08-07T18:37:55;12.90;99.90
2407;DHT22;37709;53.480;9.688;2023-08-07T18:40:24;12.70;99.90
2407;DHT22;37709;53.480;9.688;2023-08-07T18:42:51;12.50;99.90
2407;DHT22;37709;53.480;9.688;2023-08-07T18:45:18;12.40;99.90
2407;DHT22;37709;53.480;9.688;2023-08-07T18:47:46;12.50;99.90
2407;DHT22;37709;53.480;9.688;2023-08-07T18:50:13;12.60;99.90
2407;DHT22;37709;53.480;9.688;2023-08-07T18:52:41;12.70;99.90
2407;DHT22;37709;53.480;9.688;2023-08-07T18:55:08;12.60;99.90
2407;DHT22;37709;53.480;9.688;2023-08-07T18:57:36;12.60;99.90
2407;DHT22;37709;53.480;9.688;2023-08-07T19:00:04;12.50;99.90
2407;DHT22;37709;53.480;9.688;2023-08-07T19:02:33;12.40;99.90
2407;DHT22;37709;53.480;9.688;2023-08-07T19:05:01;12.20;99.90
2407;DHT22;37709;53.480;9.688;2023-08-07T19:07:29;12.10;99.90
2407;DHT22;37709;53.480;9.688;2023-08-07T19:09:57;11.90;99.90
2407;DHT22;37709;53.480;9.688;2023-08-07T19:12:24;11.90;99.90
2407;DHT22;37709;53.480;9.688;2023-08-07T19:14:51;11.90;99.90
2407;DHT22;37709;53.480;9.688;2023-08-07T19:17:19;11.90;99.90
2407;DHT22;37709;53.480;9.688;2023-08-07T19:19:46;11.90;99.90
2407;DHT22;37709;53.480;9.688;2023-08-07T19:22:14;11.90;99.90
2407;DHT22;37709;53.480;9.688;2023-08-07T19:24:41;12.00;99.90
2407;DHT22;37709;53.480;9.688;2023-08-07T19:27:08;12.20;99.90
2407;DHT22;37709;53.480;9.688;2023-08-07T19:29:36;12.20;99.90
2407;DHT22;37709;53.480;9.688;2023-08-07T19:32:03;12.20;99.90
2407;DHT22;37709;53.480;9.688;2023-08-07T19:34:31;12.00;99.90
2407;DHT22;37709;53.480;9.688;2023-08-07T19:36:59;11.90;99.90
2407;DHT22;37709;53.480;9.688;2023-08-07T19:39:27;11.90;99.90
2407;DHT22;37709;53.480;9.688;2023-08-07T19:41:54;12.00;99.90
2407;DHT22;37709;53.480;9.688;2023-08-07T19:44:22;12.20;99.90
2407;DHT22;37709;53.480;9.688;2023-08-07T19:46:49;12.20;99.90
2407;DHT22;37709;53.480;9.688;2023-08-07T19:49:17;12.20;99.90
2407;DHT22;37709;53.480;9.688;2023-08-07T19:51:44;12.10;99.90
2407;DHT22;37709;53.480;9.688;2023-08-07T19:54:11;12.10;99.90
2407;DHT22;37709;53.480;9.688;2023-08-07T19:56:40;12.10;99.90
2407;DHT22;37709;53.480;9.688;2023-08-07T19:59:08;12.10;99.90
2407;DHT22;37709;53.480;9.688;2023-08-07T20:01:35;12.00;99.90
2407;DHT22;37709;53.480;9.688;2023-08-07T20:04:02;12.00;99.90
2407;DHT22;37709;53.480;9.688;2023-08-07T20:06:36;12.00;99.90
2407;DHT22;37709;53.480;9.688;2023-08-07T20:09:03;11.90;99.90
2407;DHT22;37709;53.480;9.688;2023-08-07T20:11:36;11.90;99.90
2407;DHT22;37709;53.480;9.688;2023-08-07T20:14:04;12.00;99.90
2407;DHT22;37709;53.480;9.688;2023-08-07T20:16:31;11.90;99.90
2407;DHT22;37709;53.480;9.688;2023-08-07T20:18:59;11.90;99.90
2407;DHT22;37709;53.480;9.688;2023-08-07T20:21:27;11.90;99.90
2407;DHT22;37709;53.480;9.688;2023-08-07T20:23:54;11.90;99.90
2407;DHT22;37709;53.480;9.688;2023-08-07T20:26:22;11.90;99.90
2407;DHT22;37709;53.480;9.688;2023-08-07T20:28:51;11.90;99.90
2407;DHT22;37709;53.480;9.688;2023-08-07T20:31:19;11.80;99.90
2407;DHT22;37709;53.480;9.688;2023-08-07T20:33:46;11.80;99.90
2407;DHT22;37709;53.480;9.688;2023-08-07T20:36:13;11.70;99.90
2407;DHT22;37709;53.480;9.688;2023-08-07T20:38:41;11.70;99.90
2407;DHT22;37709;53.480;9.688;2023-08-07T20:41:08;11.80;99.90
2407;DHT22;37709;53.480;9.688;2023-08-07T20:43:35;11.80;99.90
2407;DHT22;37709;53.480;9.688;2023-08-07T20:46:05;11.90;99.90
2407;DHT22;37709;53.480;9.688;2023-08-07T20:48:33;11.90;99.90
2407;DHT22;37709;53.480;9.688;2023-08-07T20:51:01;11.90;99.90
2407;DHT22;37709;53.480;9.688;2023-08-07T20:53:28;12.00;99.90
2407;DHT22;37709;53.480;9.688;2023-08-07T20:55:56;12.00;99.90
2407;DHT22;37709;53.480;9.688;2023-08-07T20:58:24;12.00;99.90
2407;DHT22;37709;53.480;9.688;2023-08-07T21:00:51;12.00;99.90
2407;DHT22;37709;53.480;9.688;2023-08-07T21:03:18;12.00;99.90
2407;DHT22;37709;53.480;9.688;2023-08-07T21:05:46;12.00;99.90
2407;DHT22;37709;53.480;9.688;2023-08-07T21:08:13;12.00;99.90
2407;DHT22;37709;53.480;9.688;2023-08-07T21:10:40;11.90;99.90
2407;DHT22;37709;53.480;9.688;2023-08-07T21:13:08;11.90;99.90
2407;DHT22;37709;53.480;9.688;2023-08-07T21:15:35;11.90;99.90
2407;DHT22;37709;53.480;9.688;2023-08-07T21:18:03;11.90;99.90
2407;DHT22;37709;53.480;9.688;2023-08-07T21:20:31;11.90;99.90
2407;DHT22;37709;53.480;9.688;2023-08-07T21:22:58;12.00;99.90
2407;DHT22;37709;53.480;9.688;2023-08-07T21:25:25;12.00;99.90
2407;DHT22;37709;53.480;9.688;2023-08-07T21:27:52;12.00;99.90
2407;DHT22;37709;53.480;9.688;2023-08-07T21:30:20;12.00;99.90
2407;DHT22;37709;53.480;9.688;2023-08-07T21:32:47;12.10;99.90
2407;DHT22;37709;53.480;9.688;2023-08-07T21:35:15;12.10;99.90
2407;DHT22;37709;53.480;9.688;2023-08-07T21:37:42;12.20;99.90
2407;DHT22;37709;53.480;9.688;2023-08-07T21:40:11;12.30;99.90
2407;DHT22;37709;53.480;9.688;2023-08-07T21:42:40;12.30;99.90
2407;DHT22;37709;53.480;9.688;2023-08-07T21:45:07;12.20;99.90
2407;DHT22;37709;53.480;9.688;2023-08-07T21:47:35;12.10;99.90
2407;DHT22;37709;53.480;9.688;2023-08-07T21:50:03;12.10;99.90
2407;DHT22;37709;53.480;9.688;2023-08-07T21:52:30;12.20;99.90
2407;DHT22;37709;53.480;9.688;2023-08-07T21:54:58;12.20;99.90
2407;DHT22;37709;53.480;9.688;2023-08-07T21:57:25;12.20;99.90
2407;DHT22;37709;53.480;9.688;2023-08-07T21:59:52;12.20;99.90
2407;DHT22;37709;53.480;9.688;2023-08-07T22:02:20;12.20;99.90
2407;DHT22;37709;53.480;9.688;2023-08-07T22:04:47;12.30;99.90
2407;DHT22;37709;53.480;9.688;2023-08-07T22:07:14;12.10;99.90
2407;DHT22;37709;53.480;9.688;2023-08-07T22:09:42;11.90;99.90
2407;DHT22;37709;53.480;9.688;2023-08-07T22:12:09;11.70;99.90
2407;DHT22;37709;53.480;9.688;2023-08-07T22:14:37;11.70;99.90
2407;DHT22;37709;53.480;9.688;2023-08-07T22:17:05;11.50;99.90
2407;DHT22;37709;53.480;9.688;2023-08-07T22:19:34;11.50;99.90
2407;DHT22;37709;53.480;9.688;2023-08-07T22:22:02;11.50;99.90
2407;DHT22;37709;53.480;9.688;2023-08-07T22:24:31;11.50;99.90
2407;DHT22;37709;53.480;9.688;2023-08-07T22:26:58;11.50;99.90
2407;DHT22;37709;53.480;9.688;2023-08-07T22:29:26;11.60;99.90
2407;DHT22;37709;53.480;9.688;2023-08-07T22:31:54;11.60;99.90
2407;DHT22;37709;53.480;9.688;2023-08-07T22:34:21;11.60;99.90
2407;DHT22;37709;53.480;9.688;2023-08-07T22:36:49;11.60;99.90
2407;DHT22;37709;53.480;9.688;2023-08-07T22:39:17;11.60;99.90
2407;DHT22;37709;53.480;9.688;2023-08-07T22:41:44;11.50;99.90
2407;DHT22;37709;53.480;9.688;2023-08-07T22:44:12;11.50;99.90
2407;DHT22;37709;53.480;9.688;2023-08-07T22:46:40;11.40;99.90
2407;DHT22;37709;53.480;9.688;2023-08-07T22:49:07;11.40;99.90
2407;DHT22;37709;53.480;9.688;2023-08-07T22:51:34;11.30;99.90
2407;DHT22;37709;53.480;9.688;2023-08-07T22:54:03;11.30;99.90
2407;DHT22;37709;53.480;9.688;2023-08-07T22:56:30;11.30;99.90
2407;DHT22;37709;53.480;9.688;2023-08-07T22:58:57;11.30;99.90
2407;DHT22;37709;53.480;9.688;2023-08-07T23:01:24;11.50;99.90
2407;DHT22;37709;53.480;9.688;2023-08-07T23:03:52;11.60;99.90
2407;DHT22;37709;53.480;9.688;2023-08-07T23:06:19;11.70;99.90
2407;DHT22;37709;53.480;9.688;2023-08-07T23:08:46;11.70;99.90
2407;DHT22;37709;53.480;9.688;2023-08-07T23:11:14;11.90;99.90
2407;DHT22;37709;53.480;9.688;2023-08-07T23:13:41;12.00;99.90
2407;DHT22;37709;53.480;9.688;2023-08-07T23:16:09;12.10;99.90
2407;DHT22;37709;53.480;9.688;2023-08-07T23:18:36;12.10;99.90
2407;DHT22;37709;53.480;9.688;2023-08-07T23:21:04;12.20;99.90
2407;DHT22;37709;53.480;9.688;2023-08-07T23:23:31;12.10;99.90
2407;DHT22;37709;53.480;9.688;2023-08-07T23:25:58;12.10;99.90
2407;DHT22;37709;53.480;9.688;2023-08-07T23:28:26;12.10;99.90
2407;DHT22;37709;53.480;9.688;2023-08-07T23:30:53;12.20;99.90
2407;DHT22;37709;53.480;9.688;2023-08-07T23:33:21;12.20;99.90
2407;DHT22;37709;53.480;9.688;2023-08-07T23:35:48;12.20;99.90
2407;DHT22;37709;53.480;9.688;2023-08-07T23:38:16;12.20;99.90
2407;DHT22;37709;53.480;9.688;2023-08-07T23:40:44;12.20;99.90
2407;DHT22;37709;53.480;9.688;2023-08-07T23:43:11;12.00;99.90
2407;DHT22;37709;53.480;9.688;2023-08-07T23:45:39;11.90;99.90
2407;DHT22;37709;53.480;9.688;2023-08-07T23:48:07;11.80;99.90
2407;DHT22;37709;53.480;9.688;2023-08-07T23:50:35;11.70;99.90
2407;DHT22;37709;53.480;9.688;2023-08-07T23:53:02;11.70;99.90
2407;DHT22;37709;53.480;9.688;2023-08-07T23:55:30;11.70;99.90
2407;DHT22;37709;53.480;9.688;2023-08-07T23:57:58;11.80;99.90
